Albany, Oklahoma
Current Conditions -  °F | °C
As of 1:55 PM on Wednesday 28 Jan 2015 (Local Time) from KDUA Reporting Station
Clear Clear  
Wind Chill: 79°   Ceiling: Unl
Heat Index: 79°   Visibility: 10mi
Dew Point: 46°   Wind: 14mph
Humidity: 32%   Direction: 180°S
Pressure: 29.98"   Gusts: NA
Location:  33.88°N, 96.16°W
Report Text: KDUA 281955Z AUTO 18012KT 10SM CLR 26/08 A2998 RMK AO2
Loading
Personal Weather Stations






























Interactive Weather Map New forecast layout! Learn more

10-Day Weather Forecast

Advertisements
Track Severe Weather on mobile